sensor_id;sensor_type;location;lat;lon;timestamp;P1;durP1;ratioP1;P2;durP2;ratioP2
944;SDS011;459;48.676;9.034;2022-11-12T00:01:26;14.30;;;10.60;;
944;SDS011;459;48.676;9.034;2022-11-12T00:03:51;13.37;;;10.87;;
944;SDS011;459;48.676;9.034;2022-11-12T00:06:16;11.57;;;9.93;;
944;SDS011;459;48.676;9.034;2022-11-12T00:08:41;11.67;;;9.27;;
944;SDS011;459;48.676;9.034;2022-11-12T00:11:07;12.40;;;9.17;;
944;SDS011;459;48.676;9.034;2022-11-12T00:13:32;10.50;;;9.50;;
944;SDS011;459;48.676;9.034;2022-11-12T00:15:57;8.87;;;8.07;;
944;SDS011;459;48.676;9.034;2022-11-12T00:18:23;10.80;;;8.70;;
944;SDS011;459;48.676;9.034;2022-11-12T00:20:48;9.40;;;8.40;;
944;SDS011;459;48.676;9.034;2022-11-12T00:23:13;11.00;;;8.30;;
944;SDS011;459;48.676;9.034;2022-11-12T00:25:38;10.37;;;9.27;;
944;SDS011;459;48.676;9.034;2022-11-12T00:28:04;8.63;;;7.70;;
944;SDS011;459;48.676;9.034;2022-11-12T00:30:30;10.60;;;8.30;;
944;SDS011;459;48.676;9.034;2022-11-12T00:32:55;8.73;;;7.83;;
944;SDS011;459;48.676;9.034;2022-11-12T00:35:21;7.70;;;6.97;;
944;SDS011;459;48.676;9.034;2022-11-12T00:37:46;8.87;;;7.97;;
944;SDS011;459;48.676;9.034;2022-11-12T00:40:11;8.90;;;7.60;;
944;SDS011;459;48.676;9.034;2022-11-12T00:42:36;9.63;;;8.23;;
944;SDS011;459;48.676;9.034;2022-11-12T00:45:01;8.00;;;7.20;;
944;SDS011;459;48.676;9.034;2022-11-12T00:47:27;9.57;;;8.67;;
944;SDS011;459;48.676;9.034;2022-11-12T00:49:52;10.30;;;8.83;;
944;SDS011;459;48.676;9.034;2022-11-12T00:52:17;11.23;;;8.47;;
944;SDS011;459;48.676;9.034;2022-11-12T00:54:43;10.93;;;9.83;;
944;SDS011;459;48.676;9.034;2022-11-12T00:57:08;10.50;;;8.33;;
944;SDS011;459;48.676;9.034;2022-11-12T00:59:33;10.30;;;9.20;;
944;SDS011;459;48.676;9.034;2022-11-12T01:01:59;10.60;;;9.60;;
944;SDS011;459;48.676;9.034;2022-11-12T01:04:24;10.23;;;8.93;;
944;SDS011;459;48.676;9.034;2022-11-12T01:06:49;9.37;;;8.47;;
944;SDS011;459;48.676;9.034;2022-11-12T01:09:14;10.97;;;8.80;;
944;SDS011;459;48.676;9.034;2022-11-12T01:14:09;10.40;;;8.30;;
944;SDS011;459;48.676;9.034;2022-11-12T01:16:37;9.13;;;7.90;;
944;SDS011;459;48.676;9.034;2022-11-12T01:19:09;12.60;;;10.20;;
944;SDS011;459;48.676;9.034;2022-11-12T01:21:39;9.93;;;8.23;;
944;SDS011;459;48.676;9.034;2022-11-12T01:24:07;10.53;;;7.37;;
944;SDS011;459;48.676;9.034;2022-11-12T01:26:35;14.50;;;9.00;;
944;SDS011;459;48.676;9.034;2022-11-12T01:29:01;12.37;;;9.80;;
944;SDS011;459;48.676;9.034;2022-11-12T01:31:28;10.83;;;8.80;;
944;SDS011;459;48.676;9.034;2022-11-12T01:34:17;15.97;;;10.10;;
944;SDS011;459;48.676;9.034;2022-11-12T01:36:51;17.60;;;9.03;;
944;SDS011;459;48.676;9.034;2022-11-12T01:39:19;11.37;;;9.13;;
944;SDS011;459;48.676;9.034;2022-11-12T01:41:44;16.43;;;8.60;;
944;SDS011;459;48.676;9.034;2022-11-12T01:46:55;10.20;;;7.20;;
944;SDS011;459;48.676;9.034;2022-11-12T01:49:26;11.00;;;8.70;;
944;SDS011;459;48.676;9.034;2022-11-12T01:51:53;8.93;;;7.90;;
944;SDS011;459;48.676;9.034;2022-11-12T01:54:21;10.93;;;8.80;;
944;SDS011;459;48.676;9.034;2022-11-12T01:56:46;8.90;;;7.43;;
944;SDS011;459;48.676;9.034;2022-11-12T01:59:19;9.60;;;8.60;;
944;SDS011;459;48.676;9.034;2022-11-12T02:01:46;8.23;;;7.23;;
944;SDS011;459;48.676;9.034;2022-11-12T02:04:11;9.17;;;8.27;;
944;SDS011;459;48.676;9.034;2022-11-12T02:06:37;8.77;;;8.00;;
944;SDS011;459;48.676;9.034;2022-11-12T02:09:04;9.77;;;8.77;;
944;SDS011;459;48.676;9.034;2022-11-12T02:11:32;9.00;;;8.10;;
944;SDS011;459;48.676;9.034;2022-11-12T02:14:06;7.97;;;7.17;;
944;SDS011;459;48.676;9.034;2022-11-12T02:16:36;7.10;;;6.50;;
944;SDS011;459;48.676;9.034;2022-11-12T02:19:03;7.17;;;6.53;;
944;SDS011;459;48.676;9.034;2022-11-12T02:21:29;7.40;;;6.80;;
944;SDS011;459;48.676;9.034;2022-11-12T02:23:58;7.07;;;6.47;;
944;SDS011;459;48.676;9.034;2022-11-12T02:26:24;7.00;;;6.30;;
944;SDS011;459;48.676;9.034;2022-11-12T02:28:50;7.67;;;6.00;;
944;SDS011;459;48.676;9.034;2022-11-12T02:31:15;7.00;;;6.30;;
944;SDS011;459;48.676;9.034;2022-11-12T02:33:40;8.03;;;7.00;;
944;SDS011;459;48.676;9.034;2022-11-12T02:36:05;6.27;;;5.77;;
944;SDS011;459;48.676;9.034;2022-11-12T02:38:30;6.13;;;5.57;;
944;SDS011;459;48.676;9.034;2022-11-12T02:40:56;8.50;;;7.03;;
944;SDS011;459;48.676;9.034;2022-11-12T02:43:21;5.73;;;5.20;;
944;SDS011;459;48.676;9.034;2022-11-12T02:45:53;6.47;;;5.93;;
944;SDS011;459;48.676;9.034;2022-11-12T02:48:19;6.50;;;5.90;;
944;SDS011;459;48.676;9.034;2022-11-12T02:50:45;6.97;;;6.30;;
944;SDS011;459;48.676;9.034;2022-11-12T02:53:11;7.90;;;6.53;;
944;SDS011;459;48.676;9.034;2022-11-12T02:55:36;6.37;;;5.77;;
944;SDS011;459;48.676;9.034;2022-11-12T02:58:01;5.30;;;4.90;;
944;SDS011;459;48.676;9.034;2022-11-12T03:00:27;6.53;;;5.73;;
944;SDS011;459;48.676;9.034;2022-11-12T03:02:55;7.87;;;7.07;;
944;SDS011;459;48.676;9.034;2022-11-12T03:05:24;6.13;;;5.53;;
944;SDS011;459;48.676;9.034;2022-11-12T03:07:49;8.20;;;6.00;;
944;SDS011;459;48.676;9.034;2022-11-12T03:10:14;5.27;;;4.80;;
944;SDS011;459;48.676;9.034;2022-11-12T03:12:40;7.10;;;5.87;;
944;SDS011;459;48.676;9.034;2022-11-12T03:15:05;6.13;;;4.77;;
944;SDS011;459;48.676;9.034;2022-11-12T03:17:32;5.73;;;5.23;;
944;SDS011;459;48.676;9.034;2022-11-12T03:19:58;6.20;;;5.60;;
944;SDS011;459;48.676;9.034;2022-11-12T03:22:23;5.67;;;5.17;;
944;SDS011;459;48.676;9.034;2022-11-12T03:24:48;5.70;;;5.20;;
944;SDS011;459;48.676;9.034;2022-11-12T03:27:14;6.23;;;5.60;;
944;SDS011;459;48.676;9.034;2022-11-12T03:29:39;5.37;;;4.87;;
944;SDS011;459;48.676;9.034;2022-11-12T03:32:04;5.63;;;5.13;;
944;SDS011;459;48.676;9.034;2022-11-12T03:34:29;6.60;;;6.00;;
944;SDS011;459;48.676;9.034;2022-11-12T03:36:54;5.87;;;5.27;;
944;SDS011;459;48.676;9.034;2022-11-12T03:39:20;4.87;;;4.47;;
944;SDS011;459;48.676;9.034;2022-11-12T03:41:45;5.80;;;5.30;;
944;SDS011;459;48.676;9.034;2022-11-12T03:44:10;4.73;;;4.33;;
944;SDS011;459;48.676;9.034;2022-11-12T03:46:35;5.87;;;5.10;;
944;SDS011;459;48.676;9.034;2022-11-12T03:49:01;5.70;;;4.83;;
944;SDS011;459;48.676;9.034;2022-11-12T03:51:26;5.13;;;4.63;;
944;SDS011;459;48.676;9.034;2022-11-12T03:53:51;5.03;;;4.53;;
944;SDS011;459;48.676;9.034;2022-11-12T03:56:17;8.00;;;4.83;;
944;SDS011;459;48.676;9.034;2022-11-12T03:58:42;5.47;;;4.97;;
944;SDS011;459;48.676;9.034;2022-11-12T04:01:07;6.07;;;5.03;;
944;SDS011;459;48.676;9.034;2022-11-12T04:03:32;4.80;;;4.40;;
944;SDS011;459;48.676;9.034;2022-11-12T04:05:58;7.30;;;5.40;;
944;SDS011;459;48.676;9.034;2022-11-12T04:08:42;5.13;;;4.73;;
944;SDS011;459;48.676;9.034;2022-11-12T04:11:08;6.00;;;5.43;;
944;SDS011;459;48.676;9.034;2022-11-12T04:13:34;6.53;;;4.80;;
944;SDS011;459;48.676;9.034;2022-11-12T04:16:03;5.83;;;5.20;;
944;SDS011;459;48.676;9.034;2022-11-12T04:18:48;5.30;;;4.80;;
944;SDS011;459;48.676;9.034;2022-11-12T04:21:43;5.03;;;4.63;;
944;SDS011;459;48.676;9.034;2022-11-12T04:24:30;6.00;;;5.40;;
944;SDS011;459;48.676;9.034;2022-11-12T04:27:15;5.70;;;5.20;;
944;SDS011;459;48.676;9.034;2022-11-12T04:29:41;5.80;;;5.27;;
944;SDS011;459;48.676;9.034;2022-11-12T04:32:25;5.43;;;4.93;;
944;SDS011;459;48.676;9.034;2022-11-12T04:34:51;6.10;;;5.50;;
944;SDS011;459;48.676;9.034;2022-11-12T04:37:16;5.10;;;4.60;;
944;SDS011;459;48.676;9.034;2022-11-12T04:39:42;4.90;;;4.47;;
944;SDS011;459;48.676;9.034;2022-11-12T04:42:07;5.60;;;5.10;;
944;SDS011;459;48.676;9.034;2022-11-12T04:44:51;6.07;;;5.47;;
944;SDS011;459;48.676;9.034;2022-11-12T04:47:39;6.80;;;5.90;;
944;SDS011;459;48.676;9.034;2022-11-12T04:50:06;5.73;;;5.00;;
944;SDS011;459;48.676;9.034;2022-11-12T04:52:32;5.93;;;5.40;;
944;SDS011;459;48.676;9.034;2022-11-12T04:54:57;9.50;;;5.57;;
944;SDS011;459;48.676;9.034;2022-11-12T04:57:23;4.97;;;4.57;;
944;SDS011;459;48.676;9.034;2022-11-12T04:59:49;6.20;;;5.60;;
944;SDS011;459;48.676;9.034;2022-11-12T05:02:15;6.30;;;4.83;;
944;SDS011;459;48.676;9.034;2022-11-12T05:04:40;5.60;;;5.07;;
944;SDS011;459;48.676;9.034;2022-11-12T05:07:05;6.67;;;4.93;;
944;SDS011;459;48.676;9.034;2022-11-12T05:09:30;5.80;;;4.77;;
944;SDS011;459;48.676;9.034;2022-11-12T05:11:56;5.47;;;4.90;;
944;SDS011;459;48.676;9.034;2022-11-12T05:14:21;5.87;;;5.37;;
944;SDS011;459;48.676;9.034;2022-11-12T05:16:47;5.67;;;4.83;;
944;SDS011;459;48.676;9.034;2022-11-12T05:19:12;4.83;;;4.40;;
944;SDS011;459;48.676;9.034;2022-11-12T05:21:38;8.30;;;4.80;;
944;SDS011;459;48.676;9.034;2022-11-12T05:24:22;5.17;;;4.67;;
944;SDS011;459;48.676;9.034;2022-11-12T05:26:47;5.00;;;4.17;;
944;SDS011;459;48.676;9.034;2022-11-12T05:29:13;6.13;;;5.53;;
944;SDS011;459;48.676;9.034;2022-11-12T05:31:38;4.97;;;4.40;;
944;SDS011;459;48.676;9.034;2022-11-12T05:34:03;6.60;;;5.90;;
944;SDS011;459;48.676;9.034;2022-11-12T05:36:28;5.20;;;4.77;;
944;SDS011;459;48.676;9.034;2022-11-12T05:38:54;5.30;;;4.80;;
944;SDS011;459;48.676;9.034;2022-11-12T05:41:19;6.27;;;5.53;;
944;SDS011;459;48.676;9.034;2022-11-12T05:43:44;6.40;;;5.50;;
944;SDS011;459;48.676;9.034;2022-11-12T05:46:09;5.57;;;4.80;;
944;SDS011;459;48.676;9.034;2022-11-12T05:48:34;6.10;;;5.60;;
944;SDS011;459;48.676;9.034;2022-11-12T05:51:00;5.57;;;4.90;;
944;SDS011;459;48.676;9.034;2022-11-12T05:53:25;6.53;;;6.00;;
944;SDS011;459;48.676;9.034;2022-11-12T05:58:42;5.77;;;5.20;;
944;SDS011;459;48.676;9.034;2022-11-12T06:01:08;4.73;;;4.33;;
944;SDS011;459;48.676;9.034;2022-11-12T06:03:33;5.50;;;5.00;;
944;SDS011;459;48.676;9.034;2022-11-12T06:05:58;5.30;;;4.77;;
944;SDS011;459;48.676;9.034;2022-11-12T06:08:23;6.00;;;5.37;;
944;SDS011;459;48.676;9.034;2022-11-12T06:10:48;5.60;;;4.90;;
944;SDS011;459;48.676;9.034;2022-11-12T06:13:14;9.80;;;5.63;;
944;SDS011;459;48.676;9.034;2022-11-12T06:15:39;6.30;;;5.70;;
944;SDS011;459;48.676;9.034;2022-11-12T06:18:05;5.33;;;4.43;;
944;SDS011;459;48.676;9.034;2022-11-12T06:20:30;5.07;;;4.67;;
944;SDS011;459;48.676;9.034;2022-11-12T06:22:55;6.03;;;4.83;;
944;SDS011;459;48.676;9.034;2022-11-12T06:25:21;5.37;;;4.73;;
944;SDS011;459;48.676;9.034;2022-11-12T06:27:46;4.90;;;4.27;;
944;SDS011;459;48.676;9.034;2022-11-12T06:30:19;4.40;;;4.00;;
944;SDS011;459;48.676;9.034;2022-11-12T06:32:45;5.00;;;4.50;;
944;SDS011;459;48.676;9.034;2022-11-12T06:35:11;5.40;;;4.90;;
944;SDS011;459;48.676;9.034;2022-11-12T06:37:36;5.43;;;4.90;;
944;SDS011;459;48.676;9.034;2022-11-12T06:40:01;4.50;;;4.10;;
944;SDS011;459;48.676;9.034;2022-11-12T06:42:26;4.90;;;4.50;;
944;SDS011;459;48.676;9.034;2022-11-12T06:44:51;4.30;;;3.90;;
944;SDS011;459;48.676;9.034;2022-11-12T06:47:17;4.87;;;4.47;;
944;SDS011;459;48.676;9.034;2022-11-12T06:49:42;5.10;;;4.60;;
944;SDS011;459;48.676;9.034;2022-11-12T06:52:07;5.57;;;4.87;;
944;SDS011;459;48.676;9.034;2022-11-12T06:54:33;6.43;;;4.87;;
944;SDS011;459;48.676;9.034;2022-11-12T06:57:01;4.47;;;3.97;;
944;SDS011;459;48.676;9.034;2022-11-12T06:59:30;6.30;;;5.20;;
944;SDS011;459;48.676;9.034;2022-11-12T07:02:10;5.30;;;4.80;;
944;SDS011;459;48.676;9.034;2022-11-12T07:04:53;4.27;;;3.93;;
944;SDS011;459;48.676;9.034;2022-11-12T07:07:24;4.90;;;4.40;;
944;SDS011;459;48.676;9.034;2022-11-12T07:09:52;5.70;;;4.83;;
944;SDS011;459;48.676;9.034;2022-11-12T07:12:21;5.30;;;4.80;;
944;SDS011;459;48.676;9.034;2022-11-12T07:14:59;5.33;;;4.20;;
944;SDS011;459;48.676;9.034;2022-11-12T07:17:33;5.03;;;4.53;;
944;SDS011;459;48.676;9.034;2022-11-12T07:20:14;7.40;;;4.67;;
944;SDS011;459;48.676;9.034;2022-11-12T07:22:39;8.47;;;4.87;;
944;SDS011;459;48.676;9.034;2022-11-12T07:25:04;5.60;;;4.03;;
944;SDS011;459;48.676;9.034;2022-11-12T07:27:30;6.87;;;5.37;;
944;SDS011;459;48.676;9.034;2022-11-12T07:29:55;5.13;;;4.63;;
944;SDS011;459;48.676;9.034;2022-11-12T07:32:20;6.13;;;5.20;;
944;SDS011;459;48.676;9.034;2022-11-12T07:34:46;5.43;;;4.90;;
944;SDS011;459;48.676;9.034;2022-11-12T07:37:11;4.70;;;4.23;;
944;SDS011;459;48.676;9.034;2022-11-12T07:39:37;6.60;;;4.30;;
944;SDS011;459;48.676;9.034;2022-11-12T07:42:02;5.97;;;4.73;;
944;SDS011;459;48.676;9.034;2022-11-12T07:44:28;6.90;;;4.70;;
944;SDS011;459;48.676;9.034;2022-11-12T07:46:53;5.27;;;4.70;;
944;SDS011;459;48.676;9.034;2022-11-12T07:49:18;9.40;;;5.20;;
944;SDS011;459;48.676;9.034;2022-11-12T07:51:43;4.83;;;4.40;;
944;SDS011;459;48.676;9.034;2022-11-12T07:54:08;4.80;;;4.40;;
944;SDS011;459;48.676;9.034;2022-11-12T07:56:34;5.90;;;5.40;;
944;SDS011;459;48.676;9.034;2022-11-12T07:58:59;6.53;;;4.93;;
944;SDS011;459;48.676;9.034;2022-11-12T08:01:32;6.50;;;5.70;;
944;SDS011;459;48.676;9.034;2022-11-12T08:03:59;7.00;;;6.30;;
944;SDS011;459;48.676;9.034;2022-11-12T08:06:24;6.80;;;5.83;;
944;SDS011;459;48.676;9.034;2022-11-12T08:08:51;5.33;;;4.70;;
944;SDS011;459;48.676;9.034;2022-11-12T08:11:16;8.77;;;6.20;;
944;SDS011;459;48.676;9.034;2022-11-12T08:13:42;7.53;;;6.57;;
944;SDS011;459;48.676;9.034;2022-11-12T08:16:07;12.13;;;4.50;;
944;SDS011;459;48.676;9.034;2022-11-12T08:18:33;5.80;;;5.10;;
944;SDS011;459;48.676;9.034;2022-11-12T08:20:59;3.97;;;3.67;;
944;SDS011;459;48.676;9.034;2022-11-12T08:23:24;8.43;;;5.47;;
944;SDS011;459;48.676;9.034;2022-11-12T08:25:50;5.10;;;4.50;;
944;SDS011;459;48.676;9.034;2022-11-12T08:28:15;4.77;;;4.43;;
944;SDS011;459;48.676;9.034;2022-11-12T08:30:40;5.23;;;4.67;;
944;SDS011;459;48.676;9.034;2022-11-12T08:33:06;6.93;;;5.50;;
944;SDS011;459;48.676;9.034;2022-11-12T08:35:32;7.00;;;4.90;;
944;SDS011;459;48.676;9.034;2022-11-12T08:40:23;7.40;;;5.17;;
944;SDS011;459;48.676;9.034;2022-11-12T08:42:48;5.60;;;4.63;;
944;SDS011;459;48.676;9.034;2022-11-12T08:45:20;5.57;;;3.63;;
944;SDS011;459;48.676;9.034;2022-11-12T08:47:45;6.33;;;5.73;;
944;SDS011;459;48.676;9.034;2022-11-12T08:50:10;4.87;;;4.43;;
944;SDS011;459;48.676;9.034;2022-11-12T08:52:35;7.20;;;4.70;;
944;SDS011;459;48.676;9.034;2022-11-12T08:55:01;4.10;;;3.80;;
944;SDS011;459;48.676;9.034;2022-11-12T08:57:26;3.87;;;3.47;;
944;SDS011;459;48.676;9.034;2022-11-12T08:59:51;4.10;;;3.40;;
944;SDS011;459;48.676;9.034;2022-11-12T09:02:29;3.63;;;3.27;;
944;SDS011;459;48.676;9.034;2022-11-12T09:04:56;3.60;;;2.97;;
944;SDS011;459;48.676;9.034;2022-11-12T09:07:21;3.93;;;3.13;;
944;SDS011;459;48.676;9.034;2022-11-12T09:09:47;2.57;;;2.37;;
944;SDS011;459;48.676;9.034;2022-11-12T09:12:12;3.20;;;2.80;;
944;SDS011;459;48.676;9.034;2022-11-12T09:14:43;3.30;;;3.00;;
944;SDS011;459;48.676;9.034;2022-11-12T09:17:09;2.73;;;2.53;;
944;SDS011;459;48.676;9.034;2022-11-12T09:19:34;3.50;;;3.20;;
944;SDS011;459;48.676;9.034;2022-11-12T09:25:09;3.10;;;2.80;;
944;SDS011;459;48.676;9.034;2022-11-12T09:27:44;3.50;;;3.20;;
944;SDS011;459;48.676;9.034;2022-11-12T09:30:09;3.47;;;3.10;;
944;SDS011;459;48.676;9.034;2022-11-12T09:32:35;4.17;;;3.87;;
944;SDS011;459;48.676;9.034;2022-11-12T09:35:00;5.70;;;5.03;;
944;SDS011;459;48.676;9.034;2022-11-12T09:37:25;5.27;;;4.77;;
944;SDS011;459;48.676;9.034;2022-11-12T09:39:51;4.47;;;4.07;;
944;SDS011;459;48.676;9.034;2022-11-12T09:42:18;6.10;;;5.60;;
944;SDS011;459;48.676;9.034;2022-11-12T09:44:55;4.40;;;4.00;;
944;SDS011;459;48.676;9.034;2022-11-12T09:47:33;4.70;;;4.20;;
944;SDS011;459;48.676;9.034;2022-11-12T09:50:15;5.43;;;4.97;;
944;SDS011;459;48.676;9.034;2022-11-12T09:52:45;5.20;;;4.70;;
944;SDS011;459;48.676;9.034;2022-11-12T09:55:29;5.33;;;4.87;;
944;SDS011;459;48.676;9.034;2022-11-12T09:58:04;4.40;;;4.10;;
944;SDS011;459;48.676;9.034;2022-11-12T10:00:30;4.30;;;3.90;;
944;SDS011;459;48.676;9.034;2022-11-12T10:03:03;3.80;;;3.50;;
944;SDS011;459;48.676;9.034;2022-11-12T10:05:33;3.80;;;3.50;;
944;SDS011;459;48.676;9.034;2022-11-12T10:08:24;4.43;;;4.03;;
944;SDS011;459;48.676;9.034;2022-11-12T10:10:59;4.93;;;3.60;;
944;SDS011;459;48.676;9.034;2022-11-12T10:13:46;4.53;;;4.13;;
944;SDS011;459;48.676;9.034;2022-11-12T10:19:17;3.33;;;3.13;;
944;SDS011;459;48.676;9.034;2022-11-12T10:24:14;3.67;;;3.33;;
944;SDS011;459;48.676;9.034;2022-11-12T10:26:39;4.40;;;4.00;;
944;SDS011;459;48.676;9.034;2022-11-12T10:29:11;4.40;;;4.00;;
944;SDS011;459;48.676;9.034;2022-11-12T10:31:38;4.27;;;3.23;;
944;SDS011;459;48.676;9.034;2022-11-12T10:34:14;3.80;;;3.50;;
944;SDS011;459;48.676;9.034;2022-11-12T10:36:41;3.90;;;3.50;;
944;SDS011;459;48.676;9.034;2022-11-12T10:39:08;3.17;;;2.90;;
944;SDS011;459;48.676;9.034;2022-11-12T10:41:33;3.57;;;3.10;;
944;SDS011;459;48.676;9.034;2022-11-12T10:46:28;3.60;;;3.30;;
944;SDS011;459;48.676;9.034;2022-11-12T10:48:55;3.50;;;3.20;;
944;SDS011;459;48.676;9.034;2022-11-12T10:51:25;4.33;;;3.30;;
944;SDS011;459;48.676;9.034;2022-11-12T10:53:51;3.67;;;3.37;;
944;SDS011;459;48.676;9.034;2022-11-12T10:56:26;3.83;;;3.20;;
944;SDS011;459;48.676;9.034;2022-11-12T11:01:36;11.37;;;9.87;;
944;SDS011;459;48.676;9.034;2022-11-12T11:04:01;3.50;;;3.20;;
944;SDS011;459;48.676;9.034;2022-11-12T11:06:26;3.53;;;3.20;;
944;SDS011;459;48.676;9.034;2022-11-12T11:08:52;3.40;;;3.10;;
944;SDS011;459;48.676;9.034;2022-11-12T11:13:46;3.70;;;3.40;;
944;SDS011;459;48.676;9.034;2022-11-12T11:16:13;4.23;;;3.80;;
944;SDS011;459;48.676;9.034;2022-11-12T11:18:40;4.23;;;3.80;;
944;SDS011;459;48.676;9.034;2022-11-12T11:26:09;3.40;;;2.90;;
944;SDS011;459;48.676;9.034;2022-11-12T11:28:39;3.80;;;3.50;;
944;SDS011;459;48.676;9.034;2022-11-12T11:31:36;3.20;;;2.90;;
944;SDS011;459;48.676;9.034;2022-11-12T11:33:57;3.20;;;2.57;;
944;SDS011;459;48.676;9.034;2022-11-12T11:36:31;5.37;;;3.10;;
944;SDS011;459;48.676;9.034;2022-11-12T11:39:00;3.60;;;3.30;;
944;SDS011;459;48.676;9.034;2022-11-12T11:41:42;2.83;;;2.63;;
944;SDS011;459;48.676;9.034;2022-11-12T11:44:25;3.03;;;2.83;;
944;SDS011;459;48.676;9.034;2022-11-12T11:49:43;3.60;;;3.17;;
944;SDS011;459;48.676;9.034;2022-11-12T11:57:43;3.47;;;3.17;;
944;SDS011;459;48.676;9.034;2022-11-12T12:00:22;5.07;;;4.57;;
944;SDS011;459;48.676;9.034;2022-11-12T12:08:04;3.90;;;2.90;;
944;SDS011;459;48.676;9.034;2022-11-12T12:21:14;3.20;;;2.27;;
944;SDS011;459;48.676;9.034;2022-11-12T12:23:42;2.10;;;1.90;;
944;SDS011;459;48.676;9.034;2022-11-12T12:26:17;2.10;;;1.87;;
944;SDS011;459;48.676;9.034;2022-11-12T12:28:49;2.27;;;2.07;;
944;SDS011;459;48.676;9.034;2022-11-12T12:31:18;2.30;;;2.10;;
944;SDS011;459;48.676;9.034;2022-11-12T12:39:14;1.57;;;1.47;;
944;SDS011;459;48.676;9.034;2022-11-12T12:41:57;1.63;;;1.53;;
944;SDS011;459;48.676;9.034;2022-11-12T12:44:24;1.50;;;1.40;;
944;SDS011;459;48.676;9.034;2022-11-12T12:47:11;1.87;;;1.77;;
944;SDS011;459;48.676;9.034;2022-11-12T12:49:37;2.20;;;2.00;;
944;SDS011;459;48.676;9.034;2022-11-12T12:52:02;1.70;;;1.60;;
944;SDS011;459;48.676;9.034;2022-11-12T12:56:59;2.40;;;1.77;;
944;SDS011;459;48.676;9.034;2022-11-12T12:59:24;2.30;;;2.10;;
944;SDS011;459;48.676;9.034;2022-11-12T13:01:59;3.60;;;3.30;;
944;SDS011;459;48.676;9.034;2022-11-12T13:07:09;2.73;;;2.53;;
944;SDS011;459;48.676;9.034;2022-11-12T13:09:34;4.33;;;3.20;;
944;SDS011;459;48.676;9.034;2022-11-12T13:11:59;4.17;;;2.77;;
944;SDS011;459;48.676;9.034;2022-11-12T13:17:41;3.10;;;2.80;;
944;SDS011;459;48.676;9.034;2022-11-12T13:37:46;5.07;;;4.60;;
944;SDS011;459;48.676;9.034;2022-11-12T13:40:13;4.73;;;4.30;;
944;SDS011;459;48.676;9.034;2022-11-12T13:42:39;5.43;;;4.33;;
944;SDS011;459;48.676;9.034;2022-11-12T13:45:17;5.27;;;4.77;;
944;SDS011;459;48.676;9.034;2022-11-12T13:47:43;4.70;;;4.30;;
944;SDS011;459;48.676;9.034;2022-11-12T13:50:11;5.30;;;4.73;;
944;SDS011;459;48.676;9.034;2022-11-12T13:52:37;6.70;;;4.53;;
944;SDS011;459;48.676;9.034;2022-11-12T13:55:04;6.17;;;5.50;;
944;SDS011;459;48.676;9.034;2022-11-12T13:57:30;5.73;;;5.17;;
944;SDS011;459;48.676;9.034;2022-11-12T14:02:33;5.27;;;4.83;;
944;SDS011;459;48.676;9.034;2022-11-12T14:05:00;5.57;;;5.07;;
944;SDS011;459;48.676;9.034;2022-11-12T14:22:38;5.70;;;4.87;;
944;SDS011;459;48.676;9.034;2022-11-12T14:25:09;5.53;;;5.03;;
944;SDS011;459;48.676;9.034;2022-11-12T14:27:37;6.33;;;5.20;;
944;SDS011;459;48.676;9.034;2022-11-12T14:30:12;6.27;;;5.77;;
944;SDS011;459;48.676;9.034;2022-11-12T14:32:38;5.83;;;4.87;;
944;SDS011;459;48.676;9.034;2022-11-12T14:37:46;6.43;;;4.93;;
944;SDS011;459;48.676;9.034;2022-11-12T14:40:18;6.10;;;5.50;;
944;SDS011;459;48.676;9.034;2022-11-12T14:42:44;9.10;;;5.73;;
944;SDS011;459;48.676;9.034;2022-11-12T14:45:16;9.37;;;6.07;;
944;SDS011;459;48.676;9.034;2022-11-12T14:47:42;5.93;;;5.33;;
944;SDS011;459;48.676;9.034;2022-11-12T14:50:16;6.77;;;6.17;;
944;SDS011;459;48.676;9.034;2022-11-12T14:52:42;7.07;;;6.37;;
944;SDS011;459;48.676;9.034;2022-11-12T14:55:10;8.13;;;7.37;;
944;SDS011;459;48.676;9.034;2022-11-12T14:57:36;12.27;;;11.07;;
944;SDS011;459;48.676;9.034;2022-11-12T15:00:15;7.93;;;7.13;;
944;SDS011;459;48.676;9.034;2022-11-12T15:02:40;7.53;;;6.40;;
944;SDS011;459;48.676;9.034;2022-11-12T15:05:14;7.93;;;7.23;;
944;SDS011;459;48.676;9.034;2022-11-12T15:07:55;6.90;;;6.30;;
944;SDS011;459;48.676;9.034;2022-11-12T15:12:58;7.27;;;6.67;;
944;SDS011;459;48.676;9.034;2022-11-12T15:15:24;9.90;;;8.03;;
944;SDS011;459;48.676;9.034;2022-11-12T15:17:55;7.87;;;7.17;;
944;SDS011;459;48.676;9.034;2022-11-12T15:20:20;11.17;;;10.07;;
944;SDS011;459;48.676;9.034;2022-11-12T15:22:49;12.13;;;10.90;;
944;SDS011;459;48.676;9.034;2022-11-12T15:27:40;8.13;;;7.33;;
944;SDS011;459;48.676;9.034;2022-11-12T15:30:07;7.70;;;5.93;;
944;SDS011;459;48.676;9.034;2022-11-12T15:32:32;9.13;;;8.23;;
944;SDS011;459;48.676;9.034;2022-11-12T15:34:58;12.47;;;11.30;;
944;SDS011;459;48.676;9.034;2022-11-12T15:37:23;16.27;;;14.97;;
944;SDS011;459;48.676;9.034;2022-11-12T15:39:50;11.07;;;9.90;;
944;SDS011;459;48.676;9.034;2022-11-12T15:44:49;6.43;;;5.70;;
944;SDS011;459;48.676;9.034;2022-11-12T15:47:18;6.00;;;5.40;;
944;SDS011;459;48.676;9.034;2022-11-12T15:49:49;6.10;;;5.50;;
944;SDS011;459;48.676;9.034;2022-11-12T15:52:15;4.93;;;4.43;;
944;SDS011;459;48.676;9.034;2022-11-12T15:54:40;7.30;;;5.23;;
944;SDS011;459;48.676;9.034;2022-11-12T15:57:07;7.70;;;7.00;;
944;SDS011;459;48.676;9.034;2022-11-12T15:59:32;6.37;;;5.77;;
944;SDS011;459;48.676;9.034;2022-11-12T16:01:58;5.30;;;4.80;;
944;SDS011;459;48.676;9.034;2022-11-12T16:04:23;4.90;;;4.50;;
944;SDS011;459;48.676;9.034;2022-11-12T16:06:48;5.50;;;4.90;;
944;SDS011;459;48.676;9.034;2022-11-12T16:09:13;5.70;;;5.20;;
944;SDS011;459;48.676;9.034;2022-11-12T16:11:38;5.73;;;5.13;;
944;SDS011;459;48.676;9.034;2022-11-12T16:14:05;4.77;;;4.30;;
944;SDS011;459;48.676;9.034;2022-11-12T16:16:31;7.53;;;5.47;;
944;SDS011;459;48.676;9.034;2022-11-12T16:18:57;6.60;;;4.83;;
944;SDS011;459;48.676;9.034;2022-11-12T16:21:22;6.20;;;5.63;;
944;SDS011;459;48.676;9.034;2022-11-12T16:23:47;7.50;;;5.63;;
944;SDS011;459;48.676;9.034;2022-11-12T16:26:13;6.10;;;5.50;;
944;SDS011;459;48.676;9.034;2022-11-12T16:28:39;5.77;;;5.10;;
944;SDS011;459;48.676;9.034;2022-11-12T16:31:05;7.07;;;6.37;;
944;SDS011;459;48.676;9.034;2022-11-12T16:33:30;13.80;;;7.53;;
944;SDS011;459;48.676;9.034;2022-11-12T16:35:56;10.87;;;7.70;;
944;SDS011;459;48.676;9.034;2022-11-12T16:38:21;6.40;;;5.73;;
944;SDS011;459;48.676;9.034;2022-11-12T16:40:47;5.97;;;5.37;;
944;SDS011;459;48.676;9.034;2022-11-12T16:43:12;6.23;;;5.63;;
944;SDS011;459;48.676;9.034;2022-11-12T16:45:38;7.53;;;6.83;;
944;SDS011;459;48.676;9.034;2022-11-12T16:48:50;11.93;;;8.63;;
944;SDS011;459;48.676;9.034;2022-11-12T16:50:56;7.63;;;5.50;;
944;SDS011;459;48.676;9.034;2022-11-12T16:53:23;8.00;;;5.60;;
944;SDS011;459;48.676;9.034;2022-11-12T16:55:50;7.00;;;6.30;;
944;SDS011;459;48.676;9.034;2022-11-12T16:58:16;7.00;;;6.10;;
944;SDS011;459;48.676;9.034;2022-11-12T17:00:41;9.53;;;8.73;;
944;SDS011;459;48.676;9.034;2022-11-12T17:03:09;8.60;;;7.80;;
944;SDS011;459;48.676;9.034;2022-11-12T17:05:35;8.53;;;7.60;;
944;SDS011;459;48.676;9.034;2022-11-12T17:08:00;8.50;;;7.63;;
944;SDS011;459;48.676;9.034;2022-11-12T17:10:25;7.40;;;6.30;;
944;SDS011;459;48.676;9.034;2022-11-12T17:12:51;6.17;;;5.57;;
944;SDS011;459;48.676;9.034;2022-11-12T17:15:16;9.03;;;8.07;;
944;SDS011;459;48.676;9.034;2022-11-12T17:17:41;6.40;;;5.80;;
944;SDS011;459;48.676;9.034;2022-11-12T17:20:07;5.67;;;5.10;;
944;SDS011;459;48.676;9.034;2022-11-12T17:22:33;6.97;;;6.30;;
944;SDS011;459;48.676;9.034;2022-11-12T17:24:58;8.03;;;6.80;;
944;SDS011;459;48.676;9.034;2022-11-12T17:27:23;8.47;;;5.53;;
944;SDS011;459;48.676;9.034;2022-11-12T17:29:55;7.57;;;6.77;;
944;SDS011;459;48.676;9.034;2022-11-12T17:32:24;7.10;;;6.47;;
944;SDS011;459;48.676;9.034;2022-11-12T17:34:52;9.53;;;8.63;;
944;SDS011;459;48.676;9.034;2022-11-12T17:37:45;10.03;;;8.30;;
944;SDS011;459;48.676;9.034;2022-11-12T17:40:34;8.57;;;7.50;;
944;SDS011;459;48.676;9.034;2022-11-12T17:43:00;7.60;;;6.90;;